sensor_id;sensor_type;location;lat;lon;timestamp;pressure;altitude;pressure_sealevel;temperature
10869;BMP180;62667;48.698;8.762;2023-01-29T00:01:53;96880.00;;;-0.80
10869;BMP180;62667;48.698;8.762;2023-01-29T00:04:21;96870.00;;;-0.70
10869;BMP180;62667;48.698;8.762;2023-01-29T00:06:49;96875.00;;;-0.70
10869;BMP180;62667;48.698;8.762;2023-01-29T00:09:16;96883.00;;;-0.70
10869;BMP180;62667;48.698;8.762;2023-01-29T00:11:44;96882.00;;;-0.70
10869;BMP180;62667;48.698;8.762;2023-01-29T00:14:12;96882.00;;;-0.70
10869;BMP180;62667;48.698;8.762;2023-01-29T00:16:41;96872.00;;;-0.70
10869;BMP180;62667;48.698;8.762;2023-01-29T00:19:08;96873.00;;;-0.80
10869;BMP180;62667;48.698;8.762;2023-01-29T00:21:35;96866.00;;;-0.70
10869;BMP180;62667;48.698;8.762;2023-01-29T00:24:03;96877.00;;;-0.70
10869;BMP180;62667;48.698;8.762;2023-01-29T00:26:31;96868.00;;;-0.70
10869;BMP180;62667;48.698;8.762;2023-01-29T00:28:58;96868.00;;;-0.70
10869;BMP180;62667;48.698;8.762;2023-01-29T00:31:27;96868.00;;;-0.70
10869;BMP180;62667;48.698;8.762;2023-01-29T00:33:56;96867.00;;;-0.70
10869;BMP180;62667;48.698;8.762;2023-01-29T00:36:25;96858.00;;;-0.70
10869;BMP180;62667;48.698;8.762;2023-01-29T00:38:56;96856.00;;;-0.80
10869;BMP180;62667;48.698;8.762;2023-01-29T00:41:26;96867.00;;;-0.70
10869;BMP180;62667;48.698;8.762;2023-01-29T00:44:11;96874.00;;;-0.70
10869;BMP180;62667;48.698;8.762;2023-01-29T00:46:56;96867.00;;;-0.70
10869;BMP180;62667;48.698;8.762;2023-01-29T00:49:25;96861.00;;;-0.70
10869;BMP180;62667;48.698;8.762;2023-01-29T00:51:53;96858.00;;;-0.80
10869;BMP180;62667;48.698;8.762;2023-01-29T00:54:38;96866.00;;;-0.70
10869;BMP180;62667;48.698;8.762;2023-01-29T00:57:05;96864.00;;;-0.60
10869;BMP180;62667;48.698;8.762;2023-01-29T00:59:32;96861.00;;;-0.60
10869;BMP180;62667;48.698;8.762;2023-01-29T01:02:00;96866.00;;;-0.60
10869;BMP180;62667;48.698;8.762;2023-01-29T01:04:46;96873.00;;;-0.60
10869;BMP180;62667;48.698;8.762;2023-01-29T01:07:13;96874.00;;;-0.60
10869;BMP180;62667;48.698;8.762;2023-01-29T01:09:41;96874.00;;;-0.50
10869;BMP180;62667;48.698;8.762;2023-01-29T01:12:26;96871.00;;;-0.70
10869;BMP180;62667;48.698;8.762;2023-01-29T01:14:53;96871.00;;;-0.80
10869;BMP180;62667;48.698;8.762;2023-01-29T01:17:21;96875.00;;;-0.80
10869;BMP180;62667;48.698;8.762;2023-01-29T01:19:50;96878.00;;;-0.80
10869;BMP180;62667;48.698;8.762;2023-01-29T01:22:17;96870.00;;;-0.80
10869;BMP180;62667;48.698;8.762;2023-01-29T01:24:45;96862.00;;;-0.80
10869;BMP180;62667;48.698;8.762;2023-01-29T01:27:12;96873.00;;;-0.70
10869;BMP180;62667;48.698;8.762;2023-01-29T01:29:40;96877.00;;;-0.70
10869;BMP180;62667;48.698;8.762;2023-01-29T01:32:08;96864.00;;;-0.70
10869;BMP180;62667;48.698;8.762;2023-01-29T01:34:35;96871.00;;;-0.70
10869;BMP180;62667;48.698;8.762;2023-01-29T01:37:04;96871.00;;;-0.80
10869;BMP180;62667;48.698;8.762;2023-01-29T01:39:32;96860.00;;;-0.80
10869;BMP180;62667;48.698;8.762;2023-01-29T01:41:59;96860.00;;;-0.80
10869;BMP180;62667;48.698;8.762;2023-01-29T01:44:53;96863.00;;;-0.80
10869;BMP180;62667;48.698;8.762;2023-01-29T01:47:26;96862.00;;;-0.80
10869;BMP180;62667;48.698;8.762;2023-01-29T01:49:55;96872.00;;;-0.70
10869;BMP180;62667;48.698;8.762;2023-01-29T01:52:24;96862.00;;;-0.80
10869;BMP180;62667;48.698;8.762;2023-01-29T01:54:52;96867.00;;;-0.70
10869;BMP180;62667;48.698;8.762;2023-01-29T01:57:21;96862.00;;;-0.80
10869;BMP180;62667;48.698;8.762;2023-01-29T01:59:55;96852.00;;;-0.80
10869;BMP180;62667;48.698;8.762;2023-01-29T02:02:24;96868.00;;;-1.00
10869;BMP180;62667;48.698;8.762;2023-01-29T02:05:10;96857.00;;;-0.90
10869;BMP180;62667;48.698;8.762;2023-01-29T02:07:57;96860.00;;;-0.90
10869;BMP180;62667;48.698;8.762;2023-01-29T02:13:14;96857.00;;;-0.90
10869;BMP180;62667;48.698;8.762;2023-01-29T02:15:43;96855.00;;;-0.90
10869;BMP180;62667;48.698;8.762;2023-01-29T02:18:15;96850.00;;;-0.90
10869;BMP180;62667;48.698;8.762;2023-01-29T02:20:48;96869.00;;;-1.00
10869;BMP180;62667;48.698;8.762;2023-01-29T02:26:44;96868.00;;;-1.00
10869;BMP180;62667;48.698;8.762;2023-01-29T02:29:21;96866.00;;;-1.10
10869;BMP180;62667;48.698;8.762;2023-01-29T02:32:00;96862.00;;;-1.00
10869;BMP180;62667;48.698;8.762;2023-01-29T02:34:37;96863.00;;;-1.10
10869;BMP180;62667;48.698;8.762;2023-01-29T02:37:28;96874.00;;;-1.10
10869;BMP180;62667;48.698;8.762;2023-01-29T02:40:07;96880.00;;;-1.20
10869;BMP180;62667;48.698;8.762;2023-01-29T02:42:41;96870.00;;;-1.20
10869;BMP180;62667;48.698;8.762;2023-01-29T02:45:14;96859.00;;;-1.20
10869;BMP180;62667;48.698;8.762;2023-01-29T02:47:49;96864.00;;;-1.20
10869;BMP180;62667;48.698;8.762;2023-01-29T02:50:23;96865.00;;;-1.10
10869;BMP180;62667;48.698;8.762;2023-01-29T02:52:56;96862.00;;;-1.00
10869;BMP180;62667;48.698;8.762;2023-01-29T02:55:28;96862.00;;;-1.00
10869;BMP180;62667;48.698;8.762;2023-01-29T02:58:01;96851.00;;;-1.10
10869;BMP180;62667;48.698;8.762;2023-01-29T03:00:35;96850.00;;;-1.10
10869;BMP180;62667;48.698;8.762;2023-01-29T03:03:06;96862.00;;;-1.10
10869;BMP180;62667;48.698;8.762;2023-01-29T03:05:42;96860.00;;;-1.00
10869;BMP180;62667;48.698;8.762;2023-01-29T03:08:15;96857.00;;;-1.00
10869;BMP180;62667;48.698;8.762;2023-01-29T03:10:49;96857.00;;;-1.10
10869;BMP180;62667;48.698;8.762;2023-01-29T03:13:21;96864.00;;;-1.30
10869;BMP180;62667;48.698;8.762;2023-01-29T03:15:54;96869.00;;;-1.20
10869;BMP180;62667;48.698;8.762;2023-01-29T03:18:29;96871.00;;;-1.20
10869;BMP180;62667;48.698;8.762;2023-01-29T03:21:00;96861.00;;;-1.30
10869;BMP180;62667;48.698;8.762;2023-01-29T03:23:31;96851.00;;;-1.40
10869;BMP180;62667;48.698;8.762;2023-01-29T03:26:20;96858.00;;;-1.40
10869;BMP180;62667;48.698;8.762;2023-01-29T03:29:06;96866.00;;;-1.30
10869;BMP180;62667;48.698;8.762;2023-01-29T03:31:55;96867.00;;;-1.30
10869;BMP180;62667;48.698;8.762;2023-01-29T03:34:36;96860.00;;;-1.10
10869;BMP180;62667;48.698;8.762;2023-01-29T03:37:07;96864.00;;;-1.50
10869;BMP180;62667;48.698;8.762;2023-01-29T03:39:39;96855.00;;;-1.70
10869;BMP180;62667;48.698;8.762;2023-01-29T03:42:14;96857.00;;;-1.50
10869;BMP180;62667;48.698;8.762;2023-01-29T03:44:52;96864.00;;;-1.60
10869;BMP180;62667;48.698;8.762;2023-01-29T03:47:25;96859.00;;;-1.50
10869;BMP180;62667;48.698;8.762;2023-01-29T03:49:58;96867.00;;;-1.40
10869;BMP180;62667;48.698;8.762;2023-01-29T03:52:34;96854.00;;;-1.30
10869;BMP180;62667;48.698;8.762;2023-01-29T03:55:12;96863.00;;;-1.40
10869;BMP180;62667;48.698;8.762;2023-01-29T03:57:45;96859.00;;;-1.40
10869;BMP180;62667;48.698;8.762;2023-01-29T04:00:18;96859.00;;;-1.30
10869;BMP180;62667;48.698;8.762;2023-01-29T04:02:54;96859.00;;;-1.50
10869;BMP180;62667;48.698;8.762;2023-01-29T04:05:26;96854.00;;;-1.40
10869;BMP180;62667;48.698;8.762;2023-01-29T04:07:59;96854.00;;;-1.30
10869;BMP180;62667;48.698;8.762;2023-01-29T04:10:29;96850.00;;;-1.40
10869;BMP180;62667;48.698;8.762;2023-01-29T04:13:00;96850.00;;;-1.40
10869;BMP180;62667;48.698;8.762;2023-01-29T04:15:30;96854.00;;;-1.40
10869;BMP180;62667;48.698;8.762;2023-01-29T04:18:01;96858.00;;;-1.30
10869;BMP180;62667;48.698;8.762;2023-01-29T04:20:29;96850.00;;;-1.30
10869;BMP180;62667;48.698;8.762;2023-01-29T04:22:57;96848.00;;;-1.20
10869;BMP180;62667;48.698;8.762;2023-01-29T04:25:27;96852.00;;;-1.20
10869;BMP180;62667;48.698;8.762;2023-01-29T04:28:03;96851.00;;;-1.20
10869;BMP180;62667;48.698;8.762;2023-01-29T04:30:38;96851.00;;;-1.20
10869;BMP180;62667;48.698;8.762;2023-01-29T04:33:20;96851.00;;;-1.10
10869;BMP180;62667;48.698;8.762;2023-01-29T04:35:57;96848.00;;;-1.20
10869;BMP180;62667;48.698;8.762;2023-01-29T04:38:40;96868.00;;;-1.10
10869;BMP180;62667;48.698;8.762;2023-01-29T04:41:15;96855.00;;;-1.10
10869;BMP180;62667;48.698;8.762;2023-01-29T04:43:53;96847.00;;;-1.10
10869;BMP180;62667;48.698;8.762;2023-01-29T04:46:28;96852.00;;;-1.10
10869;BMP180;62667;48.698;8.762;2023-01-29T04:49:12;96858.00;;;-1.10
10869;BMP180;62667;48.698;8.762;2023-01-29T04:51:46;96838.00;;;-1.10
10869;BMP180;62667;48.698;8.762;2023-01-29T04:54:21;96848.00;;;-1.10
10869;BMP180;62667;48.698;8.762;2023-01-29T04:56:57;96849.00;;;-1.10
10869;BMP180;62667;48.698;8.762;2023-01-29T04:59:32;96852.00;;;-1.10
10869;BMP180;62667;48.698;8.762;2023-01-29T05:02:01;96852.00;;;-1.10
10869;BMP180;62667;48.698;8.762;2023-01-29T05:04:33;96844.00;;;-1.20
10869;BMP180;62667;48.698;8.762;2023-01-29T05:07:02;96855.00;;;-1.20
10869;BMP180;62667;48.698;8.762;2023-01-29T05:09:31;96850.00;;;-1.40
10869;BMP180;62667;48.698;8.762;2023-01-29T05:12:00;96839.00;;;-1.40
10869;BMP180;62667;48.698;8.762;2023-01-29T05:14:30;96840.00;;;-1.30
10869;BMP180;62667;48.698;8.762;2023-01-29T05:17:01;96839.00;;;-1.30
10869;BMP180;62667;48.698;8.762;2023-01-29T05:19:30;96841.00;;;-1.50
10869;BMP180;62667;48.698;8.762;2023-01-29T05:21:58;96840.00;;;-1.60
10869;BMP180;62667;48.698;8.762;2023-01-29T05:24:26;96852.00;;;-1.40
10869;BMP180;62667;48.698;8.762;2023-01-29T05:26:54;96851.00;;;-1.40
10869;BMP180;62667;48.698;8.762;2023-01-29T05:29:41;96850.00;;;-1.30
10869;BMP180;62667;48.698;8.762;2023-01-29T05:32:11;96857.00;;;-1.30
10869;BMP180;62667;48.698;8.762;2023-01-29T05:34:40;96862.00;;;-1.30
10869;BMP180;62667;48.698;8.762;2023-01-29T05:37:09;96865.00;;;-1.20
10869;BMP180;62667;48.698;8.762;2023-01-29T05:39:36;96871.00;;;-1.20
10869;BMP180;62667;48.698;8.762;2023-01-29T05:42:04;96869.00;;;-1.10
10869;BMP180;62667;48.698;8.762;2023-01-29T05:44:31;96861.00;;;-1.10
10869;BMP180;62667;48.698;8.762;2023-01-29T05:46:58;96859.00;;;-1.10
10869;BMP180;62667;48.698;8.762;2023-01-29T05:49:27;96847.00;;;-1.10
10869;BMP180;62667;48.698;8.762;2023-01-29T05:51:56;96845.00;;;-1.10
10869;BMP180;62667;48.698;8.762;2023-01-29T05:54:23;96823.00;;;-1.20
10869;BMP180;62667;48.698;8.762;2023-01-29T05:56:51;96816.00;;;-1.30
10869;BMP180;62667;48.698;8.762;2023-01-29T05:59:18;96814.00;;;-1.20
10869;BMP180;62667;48.698;8.762;2023-01-29T06:01:46;96813.00;;;-1.30
10869;BMP180;62667;48.698;8.762;2023-01-29T06:04:13;96812.00;;;-1.20
10869;BMP180;62667;48.698;8.762;2023-01-29T06:06:40;96831.00;;;-1.20
10869;BMP180;62667;48.698;8.762;2023-01-29T06:09:11;96827.00;;;-1.20
10869;BMP180;62667;48.698;8.762;2023-01-29T06:11:38;96820.00;;;-1.20
10869;BMP180;62667;48.698;8.762;2023-01-29T06:14:06;96824.00;;;-1.20
10869;BMP180;62667;48.698;8.762;2023-01-29T06:16:33;96818.00;;;-1.20
10869;BMP180;62667;48.698;8.762;2023-01-29T06:19:01;96832.00;;;-1.20
10869;BMP180;62667;48.698;8.762;2023-01-29T06:21:28;96831.00;;;-1.30
10869;BMP180;62667;48.698;8.762;2023-01-29T06:23:56;96832.00;;;-1.40
10869;BMP180;62667;48.698;8.762;2023-01-29T06:26:24;96830.00;;;-1.30
10869;BMP180;62667;48.698;8.762;2023-01-29T06:28:52;96856.00;;;-1.20
10869;BMP180;62667;48.698;8.762;2023-01-29T06:31:19;96846.00;;;-1.20
10869;BMP180;62667;48.698;8.762;2023-01-29T06:33:47;96839.00;;;-1.20
10869;BMP180;62667;48.698;8.762;2023-01-29T06:36:14;96840.00;;;-1.20
10869;BMP180;62667;48.698;8.762;2023-01-29T06:38:41;96845.00;;;-1.20
10869;BMP180;62667;48.698;8.762;2023-01-29T06:41:10;96856.00;;;-1.10
10869;BMP180;62667;48.698;8.762;2023-01-29T06:43:39;96848.00;;;-1.10
10869;BMP180;62667;48.698;8.762;2023-01-29T06:46:09;96848.00;;;-1.10
10869;BMP180;62667;48.698;8.762;2023-01-29T06:48:37;96844.00;;;-1.00
10869;BMP180;62667;48.698;8.762;2023-01-29T06:51:06;96841.00;;;-1.00
10869;BMP180;62667;48.698;8.762;2023-01-29T06:53:35;96843.00;;;-1.10
10869;BMP180;62667;48.698;8.762;2023-01-29T06:56:03;96842.00;;;-1.00
10869;BMP180;62667;48.698;8.762;2023-01-29T06:58:30;96846.00;;;-1.10
10869;BMP180;62667;48.698;8.762;2023-01-29T07:01:04;96854.00;;;-1.20
10869;BMP180;62667;48.698;8.762;2023-01-29T07:03:31;96858.00;;;-1.30
10869;BMP180;62667;48.698;8.762;2023-01-29T07:05:59;96866.00;;;-1.40
10869;BMP180;62667;48.698;8.762;2023-01-29T07:08:26;96856.00;;;-1.40
10869;BMP180;62667;48.698;8.762;2023-01-29T07:10:58;96855.00;;;-1.40
10869;BMP180;62667;48.698;8.762;2023-01-29T07:13:26;96849.00;;;-1.40
10869;BMP180;62667;48.698;8.762;2023-01-29T07:15:53;96839.00;;;-1.30
10869;BMP180;62667;48.698;8.762;2023-01-29T07:18:25;96836.00;;;-1.10
10869;BMP180;62667;48.698;8.762;2023-01-29T07:20:53;96836.00;;;-1.00
10869;BMP180;62667;48.698;8.762;2023-01-29T07:23:21;96837.00;;;-1.00
10869;BMP180;62667;48.698;8.762;2023-01-29T07:25:49;96843.00;;;-1.00
10869;BMP180;62667;48.698;8.762;2023-01-29T07:28:17;96838.00;;;-1.10
10869;BMP180;62667;48.698;8.762;2023-01-29T07:30:44;96852.00;;;-1.00
10869;BMP180;62667;48.698;8.762;2023-01-29T07:33:12;96858.00;;;-1.00
10869;BMP180;62667;48.698;8.762;2023-01-29T07:35:42;96859.00;;;-1.00
10869;BMP180;62667;48.698;8.762;2023-01-29T07:38:10;96856.00;;;-1.00
10869;BMP180;62667;48.698;8.762;2023-01-29T07:40:37;96865.00;;;-1.00
10869;BMP180;62667;48.698;8.762;2023-01-29T07:43:06;96871.00;;;-1.00
10869;BMP180;62667;48.698;8.762;2023-01-29T07:45:35;96873.00;;;-0.90
10869;BMP180;62667;48.698;8.762;2023-01-29T07:48:03;96874.00;;;-0.80
10869;BMP180;62667;48.698;8.762;2023-01-29T07:50:32;96879.00;;;-0.80
10869;BMP180;62667;48.698;8.762;2023-01-29T07:53:01;96874.00;;;-0.80
10869;BMP180;62667;48.698;8.762;2023-01-29T07:55:29;96881.00;;;-0.80
10869;BMP180;62667;48.698;8.762;2023-01-29T07:57:57;96872.00;;;-0.70
10869;BMP180;62667;48.698;8.762;2023-01-29T08:00:25;96879.00;;;-0.90
10869;BMP180;62667;48.698;8.762;2023-01-29T08:02:52;96881.00;;;-0.70
10869;BMP180;62667;48.698;8.762;2023-01-29T08:05:20;96887.00;;;-0.60
10869;BMP180;62667;48.698;8.762;2023-01-29T08:07:52;96894.00;;;-0.60
10869;BMP180;62667;48.698;8.762;2023-01-29T08:10:21;96904.00;;;-0.60
10869;BMP180;62667;48.698;8.762;2023-01-29T08:12:54;96895.00;;;-0.50
10869;BMP180;62667;48.698;8.762;2023-01-29T08:15:22;96891.00;;;-0.60
10869;BMP180;62667;48.698;8.762;2023-01-29T08:17:49;96892.00;;;-0.70
10869;BMP180;62667;48.698;8.762;2023-01-29T08:20:17;96890.00;;;-0.60
10869;BMP180;62667;48.698;8.762;2023-01-29T08:22:45;96892.00;;;-0.60
10869;BMP180;62667;48.698;8.762;2023-01-29T08:25:13;96890.00;;;-0.50
10869;BMP180;62667;48.698;8.762;2023-01-29T08:27:42;96902.00;;;-0.60
10869;BMP180;62667;48.698;8.762;2023-01-29T08:30:10;96898.00;;;-0.60
10869;BMP180;62667;48.698;8.762;2023-01-29T08:32:39;96896.00;;;-0.70
10869;BMP180;62667;48.698;8.762;2023-01-29T08:35:07;96912.00;;;-0.80
10869;BMP180;62667;48.698;8.762;2023-01-29T08:37:34;96914.00;;;-0.70
10869;BMP180;62667;48.698;8.762;2023-01-29T08:40:02;96907.00;;;-0.60
10869;BMP180;62667;48.698;8.762;2023-01-29T08:42:30;96915.00;;;-0.50
10869;BMP180;62667;48.698;8.762;2023-01-29T08:44:58;96916.00;;;-0.60
10869;BMP180;62667;48.698;8.762;2023-01-29T08:47:26;96913.00;;;-0.50
10869;BMP180;62667;48.698;8.762;2023-01-29T08:49:53;96920.00;;;-0.40
10869;BMP180;62667;48.698;8.762;2023-01-29T08:52:21;96912.00;;;-0.30
10869;BMP180;62667;48.698;8.762;2023-01-29T08:54:48;96914.00;;;-0.40
10869;BMP180;62667;48.698;8.762;2023-01-29T08:57:16;96916.00;;;-0.50
10869;BMP180;62667;48.698;8.762;2023-01-29T08:59:44;96914.00;;;-0.80
10869;BMP180;62667;48.698;8.762;2023-01-29T09:02:13;96903.00;;;-0.80
10869;BMP180;62667;48.698;8.762;2023-01-29T09:04:40;96896.00;;;-1.10
10869;BMP180;62667;48.698;8.762;2023-01-29T09:07:07;96913.00;;;-0.80
10869;BMP180;62667;48.698;8.762;2023-01-29T09:09:35;96916.00;;;-0.80
10869;BMP180;62667;48.698;8.762;2023-01-29T09:12:03;96915.00;;;-0.80
10869;BMP180;62667;48.698;8.762;2023-01-29T09:14:31;96912.00;;;-0.60
10869;BMP180;62667;48.698;8.762;2023-01-29T09:16:58;96924.00;;;-1.10
10869;BMP180;62667;48.698;8.762;2023-01-29T09:19:27;96920.00;;;-0.90
10869;BMP180;62667;48.698;8.762;2023-01-29T09:21:55;96920.00;;;-1.00
10869;BMP180;62667;48.698;8.762;2023-01-29T09:24:22;96918.00;;;-1.00
10869;BMP180;62667;48.698;8.762;2023-01-29T09:26:50;96932.00;;;-0.70
10869;BMP180;62667;48.698;8.762;2023-01-29T09:29:17;96931.00;;;-0.50
10869;BMP180;62667;48.698;8.762;2023-01-29T09:31:45;96919.00;;;-0.30
10869;BMP180;62667;48.698;8.762;2023-01-29T09:34:12;96917.00;;;-0.40
10869;BMP180;62667;48.698;8.762;2023-01-29T09:36:41;96929.00;;;-0.50
10869;BMP180;62667;48.698;8.762;2023-01-29T09:39:09;96931.00;;;-0.40
10869;BMP180;62667;48.698;8.762;2023-01-29T09:41:45;96935.00;;;-0.20
10869;BMP180;62667;48.698;8.762;2023-01-29T09:44:21;96915.00;;;0.00
10869;BMP180;62667;48.698;8.762;2023-01-29T09:46:50;96933.00;;;0.10
10869;BMP180;62667;48.698;8.762;2023-01-29T09:49:23;96919.00;;;0.30
10869;BMP180;62667;48.698;8.762;2023-01-29T09:51:57;96910.00;;;0.50
10869;BMP180;62667;48.698;8.762;2023-01-29T09:54:28;96892.00;;;0.60
10869;BMP180;62667;48.698;8.762;2023-01-29T09:56:57;96888.00;;;0.60
10869;BMP180;62667;48.698;8.762;2023-01-29T09:59:28;96892.00;;;0.90
10869;BMP180;62667;48.698;8.762;2023-01-29T10:02:04;96887.00;;;0.80
10869;BMP180;62667;48.698;8.762;2023-01-29T10:04:51;96872.00;;;0.80
10869;BMP180;62667;48.698;8.762;2023-01-29T10:07:41;96870.00;;;1.30
10869;BMP180;62667;48.698;8.762;2023-01-29T10:10:17;96855.00;;;1.40
10869;BMP180;62667;48.698;8.762;2023-01-29T10:13:02;96853.00;;;0.40
10869;BMP180;62667;48.698;8.762;2023-01-29T10:15:41;96851.00;;;0.30
10869;BMP180;62667;48.698;8.762;2023-01-29T10:18:32;96858.00;;;-0.10
10869;BMP180;62667;48.698;8.762;2023-01-29T10:21:24;96856.00;;;-0.60
10869;BMP180;62667;48.698;8.762;2023-01-29T10:24:00;96865.00;;;-0.20
10869;BMP180;62667;48.698;8.762;2023-01-29T10:26:32;96852.00;;;0.40
10869;BMP180;62667;48.698;8.762;2023-01-29T10:29:05;96865.00;;;0.90
10869;BMP180;62667;48.698;8.762;2023-01-29T10:31:36;96856.00;;;1.10
10869;BMP180;62667;48.698;8.762;2023-01-29T10:34:09;96844.00;;;1.20
10869;BMP180;62667;48.698;8.762;2023-01-29T10:36:42;96856.00;;;1.40
10869;BMP180;62667;48.698;8.762;2023-01-29T10:39:15;96848.00;;;1.50
10869;BMP180;62667;48.698;8.762;2023-01-29T10:42:01;96854.00;;;0.70
10869;BMP180;62667;48.698;8.762;2023-01-29T10:44:38;96845.00;;;0.30
10869;BMP180;62667;48.698;8.762;2023-01-29T10:47:32;96844.00;;;0.80
10869;BMP180;62667;48.698;8.762;2023-01-29T10:50:16;96859.00;;;0.10
10869;BMP180;62667;48.698;8.762;2023-01-29T10:53:02;96852.00;;;0.60
10869;BMP180;62667;48.698;8.762;2023-01-29T10:55:50;96869.00;;;1.00
10869;BMP180;62667;48.698;8.762;2023-01-29T10:58:25;96868.00;;;1.10
10869;BMP180;62667;48.698;8.762;2023-01-29T11:00:56;96864.00;;;1.40
10869;BMP180;62667;48.698;8.762;2023-01-29T11:03:26;96872.00;;;1.30
10869;BMP180;62667;48.698;8.762;2023-01-29T11:06:08;96867.00;;;1.20
10869;BMP180;62667;48.698;8.762;2023-01-29T11:08:41;96856.00;;;1.10
10869;BMP180;62667;48.698;8.762;2023-01-29T11:11:14;96858.00;;;1.00
10869;BMP180;62667;48.698;8.762;2023-01-29T11:13:47;96860.00;;;1.00
10869;BMP180;62667;48.698;8.762;2023-01-29T11:16:17;96871.00;;;1.10
10869;BMP180;62667;48.698;8.762;2023-01-29T11:18:53;96868.00;;;1.10
10869;BMP180;62667;48.698;8.762;2023-01-29T11:21:22;96873.00;;;1.30
10869;BMP180;62667;48.698;8.762;2023-01-29T11:23:50;96871.00;;;1.20
10869;BMP180;62667;48.698;8.762;2023-01-29T11:26:34;96858.00;;;1.10
10869;BMP180;62667;48.698;8.762;2023-01-29T11:29:03;96854.00;;;1.10
10869;BMP180;62667;48.698;8.762;2023-01-29T11:31:35;96853.00;;;1.40
10869;BMP180;62667;48.698;8.762;2023-01-29T11:34:12;96858.00;;;0.90
10869;BMP180;62667;48.698;8.762;2023-01-29T11:36:42;96831.00;;;1.10
10869;BMP180;62667;48.698;8.762;2023-01-29T11:39:18;96829.00;;;1.10
10869;BMP180;62667;48.698;8.762;2023-01-29T11:41:54;96829.00;;;1.30
10869;BMP180;62667;48.698;8.762;2023-01-29T11:44:28;96819.00;;;1.40
10869;BMP180;62667;48.698;8.762;2023-01-29T11:46:56;96816.00;;;1.10
10869;BMP180;62667;48.698;8.762;2023-01-29T11:49:31;96825.00;;;1.50
10869;BMP180;62667;48.698;8.762;2023-01-29T11:52:01;96817.00;;;1.90
10869;BMP180;62667;48.698;8.762;2023-01-29T11:54:33;96826.00;;;2.40
10869;BMP180;62667;48.698;8.762;2023-01-29T11:57:02;96823.00;;;2.60
10869;BMP180;62667;48.698;8.762;2023-01-29T11:59:39;96827.00;;;2.50
10869;BMP180;62667;48.698;8.762;2023-01-29T12:02:22;96822.00;;;1.50
10869;BMP180;62667;48.698;8.762;2023-01-29T12:04:54;96820.00;;;1.60
10869;BMP180;62667;48.698;8.762;2023-01-29T12:07:23;96821.00;;;2.00
10869;BMP180;62667;48.698;8.762;2023-01-29T12:09:55;96806.00;;;1.30
10869;BMP180;62667;48.698;8.762;2023-01-29T12:12:34;96786.00;;;1.30
10869;BMP180;62667;48.698;8.762;2023-01-29T12:15:13;96772.00;;;1.60
10869;BMP180;62667;48.698;8.762;2023-01-29T12:17:44;96759.00;;;2.60
10869;BMP180;62667;48.698;8.762;2023-01-29T12:20:16;96753.00;;;3.50
10869;BMP180;62667;48.698;8.762;2023-01-29T12:22:49;96762.00;;;2.80
10869;BMP180;62667;48.698;8.762;2023-01-29T12:25:21;96745.00;;;1.90
10869;BMP180;62667;48.698;8.762;2023-01-29T12:27:56;96740.00;;;1.90
10869;BMP180;62667;48.698;8.762;2023-01-29T12:30:30;96743.00;;;2.60
10869;BMP180;62667;48.698;8.762;2023-01-29T12:33:02;96743.00;;;3.30
10869;BMP180;62667;48.698;8.762;2023-01-29T12:35:34;96705.00;;;3.50
10869;BMP180;62667;48.698;8.762;2023-01-29T12:38:09;96679.00;;;3.20
10869;BMP180;62667;48.698;8.762;2023-01-29T12:40:41;96689.00;;;3.20
10869;BMP180;62667;48.698;8.762;2023-01-29T12:43:16;96707.00;;;3.70
10869;BMP180;62667;48.698;8.762;2023-01-29T12:45:45;96717.00;;;3.90
10869;BMP180;62667;48.698;8.762;2023-01-29T12:48:18;96700.00;;;2.90
10869;BMP180;62667;48.698;8.762;2023-01-29T12:50:47;96681.00;;;3.60
10869;BMP180;62667;48.698;8.762;2023-01-29T12:53:24;96646.00;;;4.90
10869;BMP180;62667;48.698;8.762;2023-01-29T12:55:54;96632.00;;;5.80
10869;BMP180;62667;48.698;8.762;2023-01-29T12:58:29;96659.00;;;7.80
10869;BMP180;62667;48.698;8.762;2023-01-29T13:01:03;96677.00;;;8.60
10869;BMP180;62667;48.698;8.762;2023-01-29T13:03:38;96669.00;;;9.10
10869;BMP180;62667;48.698;8.762;2023-01-29T13:06:11;96656.00;;;8.10
10869;BMP180;62667;48.698;8.762;2023-01-29T13:08:44;96655.00;;;8.30
10869;BMP180;62667;48.698;8.762;2023-01-29T13:11:20;96645.00;;;10.30
10869;BMP180;62667;48.698;8.762;2023-01-29T13:13:53;96688.00;;;11.00
10869;BMP180;62667;48.698;8.762;2023-01-29T13:16:25;96684.00;;;10.20
10869;BMP180;62667;48.698;8.762;2023-01-29T13:18:56;96694.00;;;7.70
10869;BMP180;62667;48.698;8.762;2023-01-29T13:21:26;96680.00;;;4.60
10869;BMP180;62667;48.698;8.762;2023-01-29T13:23:59;96654.00;;;3.90
10869;BMP180;62667;48.698;8.762;2023-01-29T13:26:28;96668.00;;;4.40
10869;BMP180;62667;48.698;8.762;2023-01-29T13:28:57;96654.00;;;4.10
10869;BMP180;62667;48.698;8.762;2023-01-29T13:31:28;96664.00;;;4.70
10869;BMP180;62667;48.698;8.762;2023-01-29T13:34:07;96664.00;;;5.00
10869;BMP180;62667;48.698;8.762;2023-01-29T13:36:42;96661.00;;;4.80
10869;BMP180;62667;48.698;8.762;2023-01-29T13:39:21;96680.00;;;5.40
10869;BMP180;62667;48.698;8.762;2023-01-29T13:41:50;96675.00;;;4.30
10869;BMP180;62667;48.698;8.762;2023-01-29T13:44:22;96641.00;;;4.40
10869;BMP180;62667;48.698;8.762;2023-01-29T13:46:54;96632.00;;;6.90
10869;BMP180;62667;48.698;8.762;2023-01-29T13:49:37;96640.00;;;9.40
10869;BMP180;62667;48.698;8.762;2023-01-29T13:52:22;96650.00;;;11.00
10869;BMP180;62667;48.698;8.762;2023-01-29T13:54:52;96647.00;;;12.10
10869;BMP180;62667;48.698;8.762;2023-01-29T13:57:50;96681.00;;;11.50
10869;BMP180;62667;48.698;8.762;2023-01-29T14:03:54;96706.00;;;9.30
10869;BMP180;62667;48.698;8.762;2023-01-29T14:06:39;96706.00;;;8.60
10869;BMP180;62667;48.698;8.762;2023-01-29T14:09:32;96713.00;;;7.00
10869;BMP180;62667;48.698;8.762;2023-01-29T14:12:00;96696.00;;;6.10
10869;BMP180;62667;48.698;8.762;2023-01-29T14:14:50;96660.00;;;7.70
10869;BMP180;62667;48.698;8.762;2023-01-29T14:17:19;96671.00;;;9.90
10869;BMP180;62667;48.698;8.762;2023-01-29T14:19:48;96658.00;;;11.30
10869;BMP180;62667;48.698;8.762;2023-01-29T14:22:20;96678.00;;;13.30
10869;BMP180;62667;48.698;8.762;2023-01-29T14:24:49;96679.00;;;12.40
10869;BMP180;62667;48.698;8.762;2023-01-29T14:27:21;96676.00;;;13.30
10869;BMP180;62667;48.698;8.762;2023-01-29T14:29:50;96656.00;;;12.60
10869;BMP180;62667;48.698;8.762;2023-01-29T14:32:23;96687.00;;;12.30
10869;BMP180;62667;48.698;8.762;2023-01-29T14:34:58;96697.00;;;10.20
10869;BMP180;62667;48.698;8.762;2023-01-29T14:37:31;96658.00;;;9.00
10869;BMP180;62667;48.698;8.762;2023-01-29T14:40:14;96700.00;;;10.10
10869;BMP180;62667;48.698;8.762;2023-01-29T14:42:51;96712.00;;;9.40
10869;BMP180;62667;48.698;8.762;2023-01-29T14:45:24;96704.00;;;7.60
10869;BMP180;62667;48.698;8.762;2023-01-29T14:48:04;96696.00;;;5.90
10869;BMP180;62667;48.698;8.762;2023-01-29T14:51:04;96701.00;;;4.10